Time;durP1;ratioP1;P1;durP2;ratioP2;P2;SDS_P1;SDS_P2;PMS_P1;PMS_P2;Temp;Humidity;BMP_temperature;BMP_pressure;BME280_temperature;BME280_humidity;BME280_pressure;Samples;Min_cycle;Max_cycle;Signal;HPM_P1;HPM_P2
2021/06/29 00:00:30;;;;;;;17.77;11.05;;;18.20;99.90;;;;;;5009182;28;20053;-43
2021/06/29 00:03:01;;;;;;;15.27;10.27;;;18.20;99.90;;;;;;5008053;28;20517;-43
2021/06/29 00:05:29;;;;;;;15.48;9.85;;;18.10;99.90;;;;;;5008690;28;20042;-44
2021/06/29 00:07:59;;;;;;;16.20;9.95;;;18.10;99.90;;;;;;5009451;28;20038;-42
2021/06/29 00:10:33;;;;;;;20.45;11.15;;;18.10;99.90;;;;;;5008024;28;20053;-43
2021/06/29 00:12:59;;;;;;;19.23;10.75;;;18.10;99.90;;;;;;5009328;28;20064;-44
2021/06/29 00:15:28;;;;;;;14.63;10.55;;;18.00;99.90;;;;;;5009582;28;20069;-43
2021/06/29 00:17:56;;;;;;;17.23;11.07;;;18.10;99.90;;;;;;5008068;28;20049;-43
2021/06/29 00:20:23;;;;;;;15.00;9.77;;;18.00;99.90;;;;;;5007266;28;20145;-43
2021/06/29 00:22:49;;;;;;;16.55;10.45;;;18.00;99.90;;;;;;5014662;28;20065;-43
2021/06/29 00:25:17;;;;;;;17.27;10.45;;;18.00;99.90;;;;;;5008421;28;20406;-44
2021/06/29 00:27:44;;;;;;;17.92;10.98;;;17.90;99.90;;;;;;5006671;28;20042;-44
2021/06/29 00:30:18;;;;;;;14.10;10.23;;;17.90;99.90;;;;;;5010782;28;20575;-44
2021/06/29 00:32:44;;;;;;;18.60;10.73;;;17.90;99.90;;;;;;5008404;28;20153;-43
2021/06/29 00:35:13;;;;;;;11.73;9.23;;;17.80;99.90;;;;;;5008211;28;20042;-43
2021/06/29 00:37:43;;;;;;;17.85;10.70;;;17.80;99.90;;;;;;5014914;28;20034;-43
2021/06/29 00:40:16;;;;;;;16.95;11.30;;;17.70;99.90;;;;;;5007181;28;20116;-43
2021/06/29 00:42:43;;;;;;;19.90;12.60;;;17.60;99.90;;;;;;5010043;28;20437;-43
2021/06/29 00:45:11;;;;;;;15.02;11.30;;;17.60;99.90;;;;;;5006962;28;20621;-44
2021/06/29 00:47:37;;;;;;;18.15;11.23;;;17.50;99.90;;;;;;5006896;28;20040;-44
2021/06/29 00:50:06;;;;;;;15.90;11.90;;;17.50;99.90;;;;;;4994125;28;20050;-45
2021/06/29 00:52:34;;;;;;;18.02;12.90;;;17.40;99.90;;;;;;5008042;28;20065;-44
2021/06/29 00:55:02;;;;;;;17.60;12.43;;;17.30;99.90;;;;;;5007530;28;20046;-44
2021/06/29 00:57:28;;;;;;;17.92;12.27;;;17.30;99.90;;;;;;5007875;28;20046;-44
2021/06/29 00:59:55;;;;;;;23.00;13.27;;;17.30;99.90;;;;;;5011891;28;20061;-44
2021/06/29 01:02:21;;;;;;;16.80;12.25;;;17.20;99.90;;;;;;5008141;28;20058;-44
2021/06/29 01:04:48;;;;;;;20.33;12.65;;;17.20;99.90;;;;;;5007817;28;20069;-44
2021/06/29 01:07:15;;;;;;;18.13;12.60;;;17.10;99.90;;;;;;5022776;28;20552;-45
2021/06/29 01:09:41;;;;;;;19.30;12.38;;;17.10;99.90;;;;;;5007769;28;20172;-44
2021/06/29 01:12:09;;;;;;;20.05;12.13;;;17.10;99.90;;;;;;5007378;28;20107;-44
2021/06/29 01:14:36;;;;;;;20.02;12.63;;;17.00;99.90;;;;;;5008200;28;20077;-44
2021/06/29 01:17:04;;;;;;;19.05;12.73;;;17.00;99.90;;;;;;5007194;28;20054;-43
2021/06/29 01:19:40;;;;;;;24.70;12.73;;;17.00;99.90;;;;;;5009711;28;20809;-45
2021/06/29 01:22:10;;;;;;;17.42;12.50;;;17.00;99.90;;;;;;5006829;28;20082;-42
2021/06/29 01:24:37;;;;;;;17.85;11.57;;;17.00;99.90;;;;;;5010076;28;20056;-41
2021/06/29 01:32:19;;;;;;;21.60;13.45;;;16.90;99.90;;;;;;5007012;28;20140;-41
2021/06/29 01:34:46;;;;;;;22.92;13.30;;;16.90;99.90;;;;;;5008074;28;20081;-43
2021/06/29 01:37:13;;;;;;;21.23;13.10;;;16.90;99.90;;;;;;5006694;28;20038;-43
2021/06/29 01:40:11;;;;;;;21.92;13.13;;;16.90;99.90;;;;;;5007257;28;20053;-42
2021/06/29 01:42:38;;;;;;;22.20;13.23;;;16.90;99.90;;;;;;4993920;28;20453;-44
2021/06/29 01:45:06;;;;;;;23.50;13.10;;;16.80;99.90;;;;;;5007353;28;20054;-43
2021/06/29 01:47:50;;;;;;;21.45;13.18;;;16.80;99.90;;;;;;5006900;28;20052;-43
2021/06/29 01:50:18;;;;;;;20.70;12.27;;;16.80;99.90;;;;;;5006017;28;20664;-43
2021/06/29 01:52:45;;;;;;;23.17;12.82;;;16.70;99.90;;;;;;5006862;28;20076;-42
2021/06/29 01:55:13;;;;;;;20.85;12.15;;;16.70;99.90;;;;;;5006947;28;20049;-42
2021/06/29 01:57:42;;;;;;;24.02;14.23;;;16.70;99.90;;;;;;5006677;28;20399;-43
2021/06/29 02:00:11;;;;;;;28.42;13.45;;;16.70;99.90;;;;;;5006635;28;20542;-44
2021/06/29 02:02:40;;;;;;;23.25;12.70;;;16.70;99.90;;;;;;5007346;28;20501;-42
2021/06/29 02:05:07;;;;;;;26.88;14.45;;;16.60;99.90;;;;;;5007046;28;20131;-42
2021/06/29 02:07:33;;;;;;;26.40;13.80;;;16.60;99.90;;;;;;5006373;28;20057;-44
2021/06/29 02:09:59;;;;;;;22.33;12.95;;;16.60;99.90;;;;;;5006494;28;20080;-43
2021/06/29 02:12:25;;;;;;;23.80;13.38;;;16.60;99.90;;;;;;5006872;28;20057;-44
2021/06/29 02:14:52;;;;;;;26.20;13.77;;;16.60;99.90;;;;;;5006735;28;20053;-42
2021/06/29 02:17:18;;;;;;;24.33;12.85;;;16.50;99.90;;;;;;5005920;28;20042;-44
2021/06/29 02:19:44;;;;;;;22.58;13.20;;;16.50;99.90;;;;;;5006767;28;20136;-43
2021/06/29 02:22:10;;;;;;;27.08;13.38;;;16.60;99.90;;;;;;5004542;28;20054;-43
2021/06/29 02:24:39;;;;;;;21.33;12.80;;;16.60;99.90;;;;;;5007141;28;20041;-42
2021/06/29 02:27:05;;;;;;;23.10;13.18;;;16.60;99.90;;;;;;5005715;28;20121;-43
2021/06/29 02:29:32;;;;;;;18.08;11.98;;;16.60;99.90;;;;;;5017949;28;20038;-44
2021/06/29 02:31:58;;;;;;;23.15;12.88;;;16.60;99.90;;;;;;4999516;28;20053;-43
2021/06/29 02:34:24;;;;;;;21.17;12.65;;;16.60;99.90;;;;;;5006467;28;20046;-44
2021/06/29 02:36:50;;;;;;;21.92;12.35;;;16.60;99.90;;;;;;5004870;28;20053;-44
2021/06/29 02:39:16;;;;;;;19.02;12.73;;;16.60;99.90;;;;;;5005784;28;20054;-43
2021/06/29 02:41:42;;;;;;;23.00;12.20;;;16.70;99.90;;;;;;5008259;28;20765;-42
2021/06/29 02:44:09;;;;;;;22.50;12.52;;;16.70;99.90;;;;;;5010518;28;20053;-43
2021/06/29 02:46:36;;;;;;;21.98;12.48;;;16.70;99.90;;;;;;5010471;28;20153;-43
2021/06/29 02:49:03;;;;;;;21.10;12.82;;;16.70;99.90;;;;;;5009920;28;20491;-44
2021/06/29 02:51:29;;;;;;;20.77;12.25;;;16.70;99.90;;;;;;5010040;28;20048;-43
2021/06/29 02:53:55;;;;;;;22.58;13.82;;;16.70;99.90;;;;;;5010679;28;20057;-43
2021/06/29 02:56:37;;;;;;;18.15;12.45;;;16.70;99.90;;;;;;4995817;28;20053;-43
2021/06/29 02:59:14;;;;;;;;;;;16.60;99.90;;;;;;5011214;28;20053;-44
2021/06/29 03:01:44;;;;;;;22.13;12.55;;;16.70;99.90;;;;;;5009988;28;19925;-44
2021/06/29 03:04:11;;;;;;;21.67;12.40;;;16.70;99.90;;;;;;4996410;28;20073;-43
2021/06/29 03:06:38;;;;;;;20.70;14.38;;;16.70;99.90;;;;;;5010135;28;20038;-44
2021/06/29 03:09:06;;;;;;;20.27;12.82;;;16.70;99.90;;;;;;5010420;28;20141;-43
2021/06/29 03:11:32;;;;;;;22.15;12.57;;;16.70;99.90;;;;;;5009325;28;20050;-43
2021/06/29 03:13:59;;;;;;;23.83;14.40;;;16.60;99.90;;;;;;5010243;28;20049;-43
2021/06/29 03:16:25;;;;;;;25.55;13.40;;;16.60;99.90;;;;;;5009794;28;20042;-43
2021/06/29 03:18:52;;;;;;;22.80;13.60;;;16.60;99.90;;;;;;5009605;28;20074;-44
2021/06/29 03:21:18;;;;;;;22.60;14.43;;;16.60;99.90;;;;;;5009258;28;20100;-43
2021/06/29 03:23:45;;;;;;;22.65;12.93;;;16.70;99.90;;;;;;5008013;28;20137;-43
2021/06/29 03:26:12;;;;;;;21.00;12.98;;;16.70;99.90;;;;;;5010213;28;20050;-45
2021/06/29 03:28:38;;;;;;;20.75;13.10;;;16.70;99.90;;;;;;5008705;28;20133;-45
2021/06/29 03:31:04;;;;;;;23.65;13.30;;;16.60;99.90;;;;;;5009429;28;20383;-44
2021/06/29 03:33:30;;;;;;;30.17;13.45;;;16.60;99.90;;;;;;5008157;28;20050;-43
2021/06/29 03:35:57;;;;;;;24.35;14.15;;;16.60;99.90;;;;;;5008689;28;20652;-43
2021/06/29 03:38:24;;;;;;;22.70;14.15;;;16.60;99.90;;;;;;5009664;28;20075;-43
2021/06/29 03:40:51;;;;;;;21.80;13.85;;;16.50;99.90;;;;;;5009240;28;20050;-48
2021/06/29 03:43:17;;;;;;;25.38;13.40;;;16.60;99.90;;;;;;5007192;28;20568;-43
2021/06/29 03:45:43;;;;;;;22.52;13.93;;;16.50;99.90;;;;;;5008645;28;20077;-43
2021/06/29 03:48:10;;;;;;;22.85;13.60;;;16.50;99.90;;;;;;5008574;28;20042;-44
2021/06/29 03:50:37;;;;;;;25.25;13.95;;;16.50;99.90;;;;;;5009376;28;20053;-43
2021/06/29 03:53:03;;;;;;;21.63;13.13;;;16.50;99.90;;;;;;5007637;28;20056;-43
2021/06/29 03:55:29;;;;;;;24.95;14.30;;;16.50;99.90;;;;;;5011337;28;20120;-43
2021/06/29 03:57:56;;;;;;;26.77;13.80;;;16.50;99.90;;;;;;5007795;28;20124;-44
2021/06/29 04:00:23;;;;;;;24.60;14.15;;;16.50;99.90;;;;;;5014226;28;20101;-44
2021/06/29 04:02:50;;;;;;;18.88;12.52;;;16.50;99.90;;;;;;5008012;28;20121;-43
2021/06/29 04:05:17;;;;;;;26.92;13.43;;;16.50;99.90;;;;;;5008256;28;20061;-44
2021/06/29 04:07:45;;;;;;;21.60;12.48;;;16.60;99.90;;;;;;5005437;28;20069;-43
2021/06/29 04:10:12;;;;;;;20.63;12.85;;;16.60;99.90;;;;;;5007838;28;20054;-44
2021/06/29 04:12:38;;;;;;;21.67;13.05;;;16.60;99.90;;;;;;5007776;28;20112;-45
2021/06/29 04:15:09;;;;;;;34.42;14.00;;;16.70;99.90;;;;;;5008403;28;20363;-45
2021/06/29 04:17:35;;;;;;;28.38;13.52;;;16.70;99.90;;;;;;5001589;28;20134;-45
2021/06/29 04:20:03;;;;;;;28.75;13.65;;;16.70;99.90;;;;;;5007549;28;20136;-43
2021/06/29 04:22:29;;;;;;;24.77;12.68;;;16.60;99.90;;;;;;5007835;28;20049;-43
2021/06/29 04:24:57;;;;;;;41.83;15.35;;;16.60;99.90;;;;;;5006922;28;20052;-43
2021/06/29 04:27:23;;;;;;;38.25;15.70;;;16.70;99.90;;;;;;5007791;28;20505;-44
2021/06/29 04:29:52;;;;;;;44.92;15.15;;;16.60;99.90;;;;;;5007784;28;20056;-44
2021/06/29 04:32:19;;;;;;;36.88;15.00;;;16.60;99.90;;;;;;5009968;28;20061;-44
2021/06/29 04:34:46;;;;;;;43.92;16.17;;;16.70;99.90;;;;;;5006928;28;20439;-45
2021/06/29 04:37:15;;;;;;;44.28;16.02;;;16.70;99.90;;;;;;5013492;28;20041;-45
2021/06/29 04:39:43;;;;;;;42.00;16.05;;;16.70;99.90;;;;;;5006499;28;20472;-45
2021/06/29 04:42:09;;;;;;;47.00;16.83;;;16.70;99.90;;;;;;5008273;28;20119;-45
2021/06/29 04:44:38;;;;;;;45.50;17.38;;;16.80;99.90;;;;;;5006729;28;20447;-44
2021/06/29 04:47:06;;;;;;;47.55;17.42;;;16.80;99.90;;;;;;5006894;28;20042;-45
2021/06/29 04:49:33;;;;;;;46.38;18.42;;;16.80;99.90;;;;;;5008006;28;20073;-44
2021/06/29 04:51:59;;;;;;;51.70;17.45;;;16.80;99.90;;;;;;5010450;28;20044;-46
2021/06/29 04:54:26;;;;;;;48.05;18.80;;;16.90;99.90;;;;;;5022332;28;20152;-44
2021/06/29 04:56:55;;;;;;;50.22;19.10;;;16.90;99.90;;;;;;5024807;28;20046;-43
2021/06/29 04:59:21;;;;;;;49.25;17.52;;;16.90;99.90;;;;;;5007222;28;20040;-44
2021/06/29 05:01:47;;;;;;;50.47;18.88;;;16.90;99.90;;;;;;5007473;28;20045;-45
2021/06/29 05:04:16;;;;;;;52.63;18.67;;;16.90;99.90;;;;;;5009493;28;20042;-45
2021/06/29 05:06:42;;;;;;;57.45;19.98;;;16.90;99.90;;;;;;5005829;28;20065;-45
2021/06/29 05:09:08;;;;;;;47.88;19.42;;;16.90;99.90;;;;;;5009323;28;20065;-46
2021/06/29 05:11:36;;;;;;;61.33;20.60;;;16.90;99.90;;;;;;5006451;28;20046;-43
2021/06/29 05:14:03;;;;;;;56.05;19.33;;;16.80;99.90;;;;;;5010922;28;20066;-42
2021/06/29 05:16:29;;;;;;;63.55;20.25;;;16.90;99.90;;;;;;5007281;28;20133;-41
2021/06/29 05:18:59;;;;;;;55.78;19.35;;;16.90;99.90;;;;;;5007140;28;20050;-43
2021/06/29 05:21:25;;;;;;;51.47;19.92;;;17.00;99.90;;;;;;4999144;28;20113;-41
2021/06/29 05:23:51;;;;;;;45.70;19.45;;;17.00;99.90;;;;;;4997676;28;20046;-42
2021/06/29 05:26:18;;;;;;;69.97;20.95;;;17.00;99.90;;;;;;4997775;28;20038;-43
2021/06/29 05:28:45;;;;;;;59.28;21.17;;;17.00;99.90;;;;;;4999713;28;20108;-42
2021/06/29 05:31:11;;;;;;;52.28;20.90;;;17.00;99.90;;;;;;4989205;28;20073;-41
2021/06/29 05:33:37;;;;;;;53.95;19.83;;;17.00;99.90;;;;;;4994272;28;20442;-41
2021/06/29 05:36:04;;;;;;;46.90;19.42;;;17.00;99.90;;;;;;4986414;28;20050;-40
2021/06/29 05:38:30;;;;;;;50.28;19.38;;;17.00;99.90;;;;;;4991484;28;20042;-40
2021/06/29 05:40:59;;;;;;;42.03;17.35;;;17.00;99.90;;;;;;5005110;28;20056;-41
2021/06/29 05:43:25;;;;;;;50.42;19.10;;;17.20;99.90;;;;;;5005285;28;20487;-41
2021/06/29 05:45:54;;;;;;;55.35;20.55;;;17.20;99.90;;;;;;5006366;28;20065;-43
2021/06/29 05:48:20;;;;;;;38.15;17.75;;;17.10;99.90;;;;;;5003765;28;20064;-41
2021/06/29 05:50:47;;;;;;;46.85;19.13;;;17.20;99.90;;;;;;5005132;28;20100;-40
2021/06/29 05:53:14;;;;;;;48.42;24.10;;;17.20;99.90;;;;;;5010995;28;20050;-41
2021/06/29 05:55:40;;;;;;;53.75;22.48;;;17.30;99.90;;;;;;5002053;28;20045;-41
2021/06/29 05:58:09;;;;;;;45.20;19.77;;;17.50;99.90;;;;;;5004700;28;20049;-42
2021/06/29 06:00:35;;;;;;;51.80;24.95;;;17.50;99.90;;;;;;5006436;28;20177;-41
2021/06/29 06:03:02;;;;;;;52.72;21.80;;;17.60;99.90;;;;;;5005875;28;20050;-42
2021/06/29 06:05:29;;;;;;;44.35;20.85;;;17.80;99.90;;;;;;5005312;28;20046;-41
2021/06/29 06:07:56;;;;;;;34.65;17.90;;;18.00;99.90;;;;;;5012198;28;20103;-43
2021/06/29 06:10:22;;;;;;;43.95;17.92;;;18.10;99.90;;;;;;5005412;28;20042;-41
2021/06/29 06:12:48;;;;;;;41.33;20.80;;;18.30;99.90;;;;;;5000109;28;20050;-42
2021/06/29 06:15:15;;;;;;;37.38;17.25;;;18.30;99.90;;;;;;5002462;28;20136;-41
2021/06/29 06:17:43;;;;;;;69.88;47.65;;;18.50;99.90;;;;;;5003684;28;20050;-44
2021/06/29 06:20:11;;;;;;;41.85;19.63;;;18.50;99.90;;;;;;5004170;28;20104;-44
2021/06/29 06:22:38;;;;;;;35.65;19.00;;;18.70;99.90;;;;;;4997221;28;20116;-42
2021/06/29 06:25:06;;;;;;;46.00;23.58;;;18.70;99.90;;;;;;4999084;28;20069;-42
2021/06/29 06:27:35;;;;;;;35.95;17.50;;;18.60;99.90;;;;;;4998483;28;20503;-41
2021/06/29 06:30:05;;;;;;;51.85;37.88;;;18.70;99.90;;;;;;5000723;28;20049;-41
2021/06/29 06:32:32;;;;;;;45.10;25.38;;;18.90;99.90;;;;;;5001603;28;20112;-41
2021/06/29 06:35:04;;;;;;;31.17;17.20;;;19.00;99.90;;;;;;5002724;28;20052;-44
2021/06/29 06:37:30;;;;;;;33.50;17.27;;;19.00;99.90;;;;;;5003963;28;20038;-43
2021/06/29 06:39:56;;;;;;;38.47;17.83;;;18.90;99.90;;;;;;5003488;28;20051;-42
2021/06/29 06:42:27;;;;;;;30.85;17.70;;;18.90;99.90;;;;;;5001903;28;20051;-41
2021/06/29 06:44:53;;;;;;;29.80;17.98;;;18.80;99.90;;;;;;4996909;28;20049;-46
2021/06/29 06:47:20;;;;;;;35.47;17.70;;;18.70;99.90;;;;;;4998304;28;20030;-43
2021/06/29 06:49:46;;;;;;;35.53;18.27;;;18.60;99.90;;;;;;5002406;28;20058;-41
2021/06/29 06:52:13;;;;;;;34.30;18.83;;;18.70;99.90;;;;;;4999666;28;20542;-42
2021/06/29 06:54:40;;;;;;;36.33;18.90;;;18.60;99.90;;;;;;5000596;28;20145;-42
2021/06/29 06:57:06;;;;;;;33.55;18.23;;;18.70;99.90;;;;;;5004871;28;20157;-48
2021/06/29 06:59:33;;;;;;;36.90;18.38;;;18.70;99.90;;;;;;5004769;28;20038;-40
2021/06/29 07:01:59;;;;;;;40.70;24.23;;;18.70;99.90;;;;;;4996548;28;20105;-41
2021/06/29 07:04:26;;;;;;;32.03;17.92;;;18.70;99.90;;;;;;5000654;28;20065;-44
2021/06/29 07:06:52;;;;;;;34.63;20.40;;;18.70;99.90;;;;;;5004615;28;20057;-43
2021/06/29 07:09:18;;;;;;;36.95;24.58;;;18.60;99.90;;;;;;5005532;28;20055;-43
2021/06/29 07:11:45;;;;;;;31.50;18.00;;;18.70;99.90;;;;;;5003416;28;20478;-44
2021/06/29 07:14:11;;;;;;;33.80;18.00;;;18.80;99.90;;;;;;5004644;28;20084;-42
2021/06/29 07:16:42;;;;;;;32.17;18.88;;;18.80;99.90;;;;;;5002337;28;20129;-43
2021/06/29 07:19:09;;;;;;;36.35;19.00;;;18.80;99.90;;;;;;4998571;28;20157;-42
2021/06/29 07:21:36;;;;;;;35.42;19.23;;;18.90;99.90;;;;;;5003418;28;20053;-42
2021/06/29 07:24:03;;;;;;;32.83;18.52;;;19.00;99.90;;;;;;5004135;28;20128;-45
2021/06/29 07:26:29;;;;;;;34.05;20.38;;;19.10;99.90;;;;;;5008071;28;20080;-42
2021/06/29 07:28:55;;;;;;;33.88;17.88;;;19.30;99.90;;;;;;5006739;28;20092;-42
2021/06/29 07:31:22;;;;;;;31.13;17.70;;;19.30;99.90;;;;;;5004931;28;20103;-45
2021/06/29 07:33:49;;;;;;;33.22;17.10;;;19.30;99.90;;;;;;5008941;28;20496;-47
2021/06/29 07:36:17;;;;;;;31.52;17.40;;;19.40;99.90;;;;;;5010499;28;20367;-42
2021/06/29 07:38:45;;;;;;;26.80;16.50;;;19.30;99.90;;;;;;5007608;28;20080;-43
2021/06/29 07:41:15;;;;;;;26.08;16.27;;;19.40;99.90;;;;;;5001991;28;20451;-42
2021/06/29 07:43:41;;;;;;;32.30;17.13;;;19.40;99.90;;;;;;4989690;28;20364;-41
2021/06/29 07:46:08;;;;;;;33.92;18.90;;;19.40;99.90;;;;;;5000618;28;20161;-42
2021/06/29 07:48:37;;;;;;;33.03;17.05;;;19.30;99.90;;;;;;4998133;28;20067;-43
2021/06/29 07:51:06;;;;;;;32.08;16.85;;;19.40;99.90;;;;;;4993405;28;20785;-41
2021/06/29 07:53:33;;;;;;;24.40;16.52;;;19.50;99.90;;;;;;5013639;28;20048;-41
2021/06/29 07:56:00;;;;;;;26.65;17.83;;;19.60;99.90;;;;;;5007148;28;20046;-43
2021/06/29 07:58:27;;;;;;;41.20;30.45;;;19.60;99.90;;;;;;5008211;28;20049;-42
2021/06/29 08:00:53;;;;;;;24.70;16.40;;;19.60;99.90;;;;;;5008916;28;20068;-44
2021/06/29 08:03:19;;;;;;;28.98;17.38;;;19.60;99.90;;;;;;5009862;28;20776;-44
2021/06/29 08:05:46;;;;;;;25.35;16.63;;;19.60;99.90;;;;;;5002321;28;20046;-43
2021/06/29 08:08:12;;;;;;;28.52;16.98;;;19.60;99.90;;;;;;5009853;28;20053;-43
2021/06/29 08:10:38;;;;;;;29.40;17.98;;;19.70;99.90;;;;;;5010427;28;20117;-43
2021/06/29 08:13:06;;;;;;;31.20;17.75;;;19.70;99.90;;;;;;5007359;28;20073;-44
2021/06/29 08:15:36;;;;;;;29.90;17.77;;;19.60;99.90;;;;;;5009867;28;20069;-46
2021/06/29 08:18:03;;;;;;;38.35;18.60;;;19.60;99.90;;;;;;5014149;28;20048;-44
2021/06/29 08:20:29;;;;;;;35.65;18.50;;;19.80;99.90;;;;;;5007010;28;20042;-48
2021/06/29 08:22:55;;;;;;;36.15;18.65;;;19.80;99.90;;;;;;5007360;28;20053;-43
2021/06/29 08:25:23;;;;;;;30.27;17.88;;;19.90;99.90;;;;;;5009132;28;20050;-45
2021/06/29 08:27:50;;;;;;;31.05;18.48;;;19.80;99.90;;;;;;4996119;28;20076;-43
2021/06/29 08:30:22;;;;;;;30.15;18.70;;;19.80;99.90;;;;;;4989722;28;20046;-45
2021/06/29 08:32:48;;;;;;;31.67;18.48;;;19.70;99.90;;;;;;5001439;28;20052;-44
2021/06/29 08:35:14;;;;;;;30.35;17.65;;;19.90;99.90;;;;;;5002263;28;20046;-45
2021/06/29 08:37:44;;;;;;;34.75;19.23;;;19.80;99.90;;;;;;4997030;28;20517;-44
2021/06/29 08:40:12;;;;;;;39.92;20.25;;;19.80;99.90;;;;;;5011804;28;20513;-44
2021/06/29 08:42:39;;;;;;;31.13;18.73;;;19.70;99.90;;;;;;5008771;28;20103;-44
2021/06/29 08:45:16;;;;;;;35.17;19.75;;;19.70;99.90;;;;;;5014056;28;20113;-46
2021/06/29 08:47:42;;;;;;;27.63;19.00;;;19.80;99.90;;;;;;4991934;28;20050;-46
2021/06/29 08:50:12;;;;;;;34.78;21.20;;;19.90;99.90;;;;;;5007956;28;20565;-45
2021/06/29 08:52:42;;;;;;;34.92;21.02;;;19.80;99.90;;;;;;5008806;28;20053;-44
2021/06/29 08:55:10;;;;;;;35.65;21.00;;;19.80;99.90;;;;;;5009719;28;20049;-44
2021/06/29 08:57:39;;;;;;;31.70;21.67;;;19.70;99.90;;;;;;5007049;28;20095;-43
2021/06/29 09:00:09;;;;;;;34.22;20.60;;;19.70;99.90;;;;;;5015511;28;20500;-45
2021/06/29 09:02:39;;;;;;;39.05;21.52;;;19.60;99.90;;;;;;4989342;28;20570;-42
2021/06/29 09:05:24;;;;;;;37.22;21.17;;;19.60;99.90;;;;;;5006636;28;20045;-44
2021/06/29 09:08:02;;;;;;;36.88;20.52;;;19.60;99.90;;;;;;5007649;28;20463;-43
2021/06/29 09:10:29;;;;;;;34.88;21.58;;;19.60;99.90;;;;;;5005947;28;20119;-43
2021/06/29 09:12:59;;;;;;;34.45;22.30;;;19.60;99.90;;;;;;5008315;28;20081;-43
2021/06/29 09:15:42;;;;;;;54.85;42.90;;;19.60;99.90;;;;;;5007914;28;20101;-46
2021/06/29 09:18:32;;;;;;;37.15;23.00;;;19.70;99.90;;;;;;5006139;28;20045;-43
2021/06/29 09:21:07;;;;;;;34.38;21.65;;;19.80;99.90;;;;;;5007146;28;20065;-43
2021/06/29 09:23:47;;;;;;;36.33;23.60;;;19.70;99.90;;;;;;4986631;28;20133;-45
2021/06/29 09:26:19;;;;;;;38.25;23.50;;;19.80;99.90;;;;;;5000240;28;20564;-43
2021/06/29 09:28:51;;;;;;;36.00;22.73;;;19.90;99.90;;;;;;4988904;28;20137;-43
2021/06/29 09:31:20;;;;;;;44.65;24.83;;;20.00;99.90;;;;;;4998879;28;20037;-43
2021/06/29 09:33:52;;;;;;;46.90;30.58;;;20.10;99.90;;;;;;5010978;28;20046;-43
2021/06/29 09:36:29;;;;;;;40.13;26.65;;;20.10;99.90;;;;;;5007955;28;20088;-42
2021/06/29 09:39:00;;;;;;;43.58;22.77;;;20.20;99.90;;;;;;5006631;28;20799;-43
2021/06/29 09:41:32;;;;;;;35.30;25.27;;;20.10;99.90;;;;;;5008033;28;20054;-42
2021/06/29 09:44:10;;;;;;;38.58;23.20;;;20.00;99.90;;;;;;5005827;28;20054;-43
2021/06/29 09:46:41;;;;;;;36.23;23.93;;;20.00;99.90;;;;;;4999936;28;20129;-45
2021/06/29 09:49:15;;;;;;;35.17;22.63;;;19.90;99.90;;;;;;5004397;28;20135;-43
2021/06/29 09:51:52;;;;;;;42.60;24.42;;;20.00;99.90;;;;;;5004745;28;20041;-52
2021/06/29 09:54:20;;;;;;;35.63;24.15;;;19.90;99.90;;;;;;4996352;28;20055;-49
2021/06/29 09:56:47;;;;;;;35.58;24.35;;;19.90;99.90;;;;;;4988322;28;20061;-51
2021/06/29 09:59:19;;;;;;;37.92;24.83;;;20.00;99.90;;;;;;5005913;28;20045;-49
2021/06/29 10:01:48;;;;;;;;;;;20.00;99.90;;;;;;5004492;28;20050;-54
2021/06/29 10:04:17;;;;;;;37.42;26.25;;;20.00;99.90;;;;;;5004912;28;20258;-54
2021/06/29 10:06:44;;;;;;;36.13;23.08;;;20.00;99.90;;;;;;5006535;28;20042;-51
2021/06/29 10:09:20;;;;;;;44.45;27.30;;;20.10;99.90;;;;;;5009611;28;20052;-45
2021/06/29 10:11:52;;;;;;;40.47;24.17;;;20.10;99.90;;;;;;5001636;28;20160;-46
2021/06/29 10:14:22;;;;;;;41.65;23.45;;;20.00;99.90;;;;;;5001650;28;20045;-44
2021/06/29 10:16:53;;;;;;;44.00;25.23;;;19.90;99.90;;;;;;5007020;28;20053;-42
2021/06/29 10:22:00;;;;;;;41.92;24.15;;;19.80;99.90;;;;;;5001882;28;20046;-44
2021/06/29 10:24:32;;;;;;;62.42;26.58;;;19.80;99.90;;;;;;5005746;28;20111;-47
2021/06/29 10:27:03;;;;;;;40.38;24.42;;;19.80;99.90;;;;;;5003241;28;20076;-45
2021/06/29 10:29:34;;;;;;;39.78;23.63;;;19.80;99.90;;;;;;5003147;28;20043;-44
2021/06/29 10:32:11;;;;;;;41.83;23.80;;;19.90;99.90;;;;;;4998905;28;20072;-46
2021/06/29 10:34:41;;;;;;;40.58;24.17;;;19.80;99.90;;;;;;5000928;28;20047;-46
2021/06/29 10:37:07;;;;;;;45.03;24.98;;;19.90;99.90;;;;;;5007604;28;20049;-44
2021/06/29 10:39:35;;;;;;;36.03;23.83;;;19.80;99.90;;;;;;5005718;28;20053;-46
2021/06/29 10:42:15;;;;;;;39.45;24.25;;;19.90;99.90;;;;;;5000822;28;20120;-47
2021/06/29 10:44:45;;;;;;;35.22;22.98;;;20.00;99.90;;;;;;4995051;28;20034;-46
2021/06/29 10:47:24;;;;;;;33.35;22.92;;;20.00;99.90;;;;;;5012764;28;20042;-44
2021/06/29 10:49:55;;;;;;;38.17;24.27;;;20.10;99.90;;;;;;5002858;28;20407;-47
2021/06/29 10:52:27;;;;;;;36.85;23.90;;;20.00;99.90;;;;;;5003212;28;20042;-46
2021/06/29 10:54:53;;;;;;;33.75;24.02;;;20.10;99.90;;;;;;5004961;28;20050;-45
2021/06/29 10:57:25;;;;;;;37.88;24.67;;;20.00;99.90;;;;;;5009845;28;20045;-46
2021/06/29 10:59:55;;;;;;;37.97;24.73;;;20.00;99.90;;;;;;5003225;28;20052;-45
2021/06/29 11:02:33;;;;;;;45.83;31.77;;;20.20;99.90;;;;;;5009878;28;20046;-45
2021/06/29 11:05:08;;;;;;;35.20;25.73;;;20.30;99.90;;;;;;5014614;28;20042;-45
2021/06/29 11:07:43;;;;;;;33.53;23.25;;;20.30;99.90;;;;;;5013307;28;20045;-48
2021/06/29 11:10:17;;;;;;;34.80;25.40;;;20.40;99.90;;;;;;5004044;28;20526;-44
2021/06/29 11:12:56;;;;;;;38.92;24.17;;;20.50;99.90;;;;;;4999720;28;20073;-50
2021/06/29 11:15:44;;;;;;;44.58;31.80;;;20.50;99.90;;;;;;5010232;28;20049;-49
2021/06/29 11:18:14;;;;;;;37.92;27.50;;;20.50;99.90;;;;;;5009218;28;20054;-48
2021/06/29 11:20:50;;;;;;;34.97;26.08;;;20.40;99.90;;;;;;4993227;28;20054;-46
2021/06/29 11:23:19;;;;;;;33.95;24.08;;;20.30;99.90;;;;;;5004670;28;20046;-47
2021/06/29 11:26:04;;;;;;;40.03;25.67;;;20.10;99.90;;;;;;5000777;28;20073;-48
2021/06/29 11:28:35;;;;;;;32.45;23.95;;;20.00;99.90;;;;;;5009107;28;20046;-49
2021/06/29 11:31:21;;;;;;;30.17;24.35;;;19.90;99.90;;;;;;5016839;28;20081;-48
2021/06/29 11:33:49;;;;;;;28.13;22.33;;;19.80;99.90;;;;;;5002855;28;20053;-47
2021/06/29 11:36:25;;;;;;;30.77;22.00;;;19.90;99.90;;;;;;5005622;28;20076;-51
2021/06/29 11:38:58;;;;;;;29.23;21.98;;;19.90;99.90;;;;;;5008816;28;20121;-46
2021/06/29 11:41:25;;;;;;;35.45;21.35;;;19.80;99.90;;;;;;5008349;28;20050;-46
2021/06/29 11:43:59;;;;;;;31.98;21.80;;;19.80;99.90;;;;;;5009022;28;20049;-46
2021/06/29 11:46:53;;;;;;;33.10;21.10;;;19.80;99.90;;;;;;5008505;28;20042;-48
2021/06/29 11:49:36;;;;;;;31.35;21.73;;;19.70;99.90;;;;;;5006758;28;20856;-45
2021/06/29 11:52:11;;;;;;;30.08;20.77;;;19.90;99.90;;;;;;5015804;28;20042;-48
2021/06/29 11:54:44;;;;;;;35.20;27.10;;;19.80;99.90;;;;;;5009417;28;20773;-45
2021/06/29 11:57:29;;;;;;;31.42;20.55;;;19.80;99.90;;;;;;5009231;28;20100;-48
2021/06/29 11:59:59;;;;;;;35.92;23.58;;;19.80;99.90;;;;;;5009129;28;20061;-48
2021/06/29 12:02:32;;;;;;;31.95;22.15;;;19.70;99.90;;;;;;5008595;28;20053;-46
2021/06/29 12:05:06;;;;;;;31.35;21.00;;;19.70;99.90;;;;;;5006018;28;20038;-48
2021/06/29 12:07:37;;;;;;;32.08;21.58;;;19.90;99.90;;;;;;5008103;28;20038;-48
2021/06/29 12:10:23;;;;;;;32.55;22.75;;;19.80;99.90;;;;;;5013792;28;20084;-47
2021/06/29 12:12:52;;;;;;;31.08;21.45;;;19.70;99.90;;;;;;5002268;28;20049;-46
2021/06/29 12:15:20;;;;;;;30.13;22.20;;;19.70;99.90;;;;;;5009904;28;20045;-47
2021/06/29 12:17:57;;;;;;;29.15;21.27;;;19.80;99.90;;;;;;5013138;28;20084;-47
2021/06/29 12:20:38;;;;;;;31.23;22.05;;;19.80;99.90;;;;;;5009955;28;20124;-45
2021/06/29 12:23:07;;;;;;;40.15;30.95;;;19.80;99.90;;;;;;5013681;28;20042;-48
2021/06/29 12:25:36;;;;;;;37.47;26.60;;;19.80;99.90;;;;;;5009776;28;20100;-47
2021/06/29 12:28:04;;;;;;;32.38;21.52;;;19.70;99.90;;;;;;5009347;28;20042;-48
2021/06/29 12:30:30;;;;;;;38.58;23.48;;;19.80;99.90;;;;;;5008176;28;20049;-50
2021/06/29 12:32:58;;;;;;;35.47;21.92;;;19.90;99.90;;;;;;5011191;28;20549;-49
2021/06/29 12:35:29;;;;;;;35.60;26.88;;;19.90;99.90;;;;;;5013178;28;20639;-45
2021/06/29 12:38:02;;;;;;;;;;;20.00;99.90;;;;;;5008652;28;20045;-47
2021/06/29 12:40:30;;;;;;;33.42;22.83;;;20.00;99.90;;;;;;5008609;28;19921;-46
2021/06/29 12:42:57;;;;;;;31.73;24.30;;;20.20;99.90;;;;;;5009082;28;20164;-50
2021/06/29 12:45:30;;;;;;;38.33;25.10;;;20.20;99.90;;;;;;5019201;28;20040;-46